• Join FlightAware (Why Join?)
  • Login
  • US Flag 
05:58PM EST


 

Airport Tracker/Info


-or-


 

Live Flight TrackerFlight Track Log ✈ CHQ3021 ✈ 05-May-2013 ✈ KCLT - KMGM

Flight Track Log - Related Links

Times and Time Zones

All times are in EDT time to prevent confusion due to time zone crossing. See the CHQ3021 flight status page for this flight to view local times or setup timezone preferences in your user account.

Time Position Orientation Groundspeed Altitude Reporting Facility
EDT Latitude Longitude Course Direction KTS MPH feet Rate Location/Type
03:25PM 35.2269 -80.9572 192° South 160 184 1,400  Level Atlanta Center
03:26PM 35.2844 -81.0033 327° Northwest 238 274 3,300 1,560 Climbing Atlanta Center
03:27PM 35.2534 -81.1201 321° Northwest  Level FlightAware Approximate
03:27PM 35.2864 -81.0872 272° West 304 350 4,800  Level Atlanta Center
03:28PM 35.2653 -81.2172 199° South  Level FlightAware Approximate
03:28PM 35.2756 -81.1639 260° West 299 344 6,900  Level Atlanta Center
03:28PM 35.2681 -81.1972 255° West 292 336 8,300 3,360 Climbing Atlanta Center
03:29PM 35.1837 -81.2523 199° South  Level FlightAware Approximate
03:29PM 35.2439 -81.2364 233° Southwest 220 253 10,300  Level Atlanta Center
03:29PM 35.2297 -81.2469 211° Southwest 209 241 10,800 1,260 Climbing Atlanta Center
03:30PM 35.1002 -81.2791 192° South  Level FlightAware Approximate
03:30PM 35.1944 -81.2583 195° South 233 268 11,600  Level Atlanta Center
03:31PM 35.1261 -81.2833 197° South 258 297 13,100 1,500 Climbing Atlanta Center
03:32PM 35.0711 -81.3436 222° Southwest 258 297 14,600 1,320 Climbing Atlanta Center
03:33PM 35.0400 -81.4461 250° West 297 342 15,800 1,200 Climbing Atlanta Center
03:34PM 35.0086 -81.5486 250° West 324 373 17,000 1,200 Climbing Atlanta Center
03:35PM 34.9733 -81.6686 250° West 337 388 18,300 1,200 Climbing Atlanta Center
03:36PM 34.9400 -81.7811 250° West 348 400 19,500 1,380 Climbing Atlanta Center
03:37PM 34.8919 -81.8864 241° Southwest 353 406 21,100 1,980 Climbing Atlanta Center
03:38PM 34.8392 -81.9736 234° Southwest 347 399 23,500 1,980 Climbing Atlanta Center
03:39PM 34.7883 -82.0583 234° Southwest 327 376 25,100 1,380 Climbing Atlanta Center
03:40PM 34.7397 -82.1456 236° Southwest 321 369 26,300 1,140 Climbing Atlanta Center
03:41PM 34.6889 -82.2350 235° Southwest 321 369 27,400 1,080 Climbing Atlanta Center
03:42PM 34.6400 -82.3194 235° Southwest 315 362 28,500 1,020 Climbing Atlanta Center
03:43PM 34.5931 -82.4036 236° Southwest 320 368 29,500 960 Climbing Atlanta Center
03:44PM 34.5422 -82.4956 236° Southwest 325 374 30,500 1,020 Climbing Atlanta Center
03:45PM 34.4828 -82.5972 235° Southwest 338 389 31,600 720 Climbing Atlanta Center
03:46PM 34.4256 -82.6914 234° Southwest 343 395 32,000 180 Climbing Atlanta Center
03:47PM 34.3722 -82.7831 235° Southwest 364 419 32,000  Level Atlanta Center
03:48PM 34.3147 -82.8844 236° Southwest 369 425 32,000  Level Atlanta Center
03:49PM 34.2553 -82.9858 235° Southwest 364 419 32,000  Level Atlanta Center
03:50PM 34.1975 -83.0894 236° Southwest 370 426 32,000  Level Atlanta Center
03:51PM 34.1378 -83.1906 235° Southwest 380 437 32,000  Level Atlanta Center
03:52PM 34.0758 -83.2939 234° Southwest 386 444 32,000  Level Atlanta Center
03:53PM 34.0097 -83.4072 235° Southwest 386 444 32,000  Level Atlanta Center
03:54PM 33.9497 -83.5081 234° Southwest 380 437 32,000  Level Atlanta Center
03:55PM 33.8894 -83.6108 235° Southwest 380 437 32,000  Level Atlanta Center
03:56PM 33.8292 -83.7111 234° Southwest 380 437 32,000  Level Atlanta Center
03:57PM 33.7669 -83.8139 234° Southwest 380 437 32,000  Level Atlanta Center
03:58PM 33.7064 -83.9164 235° Southwest 380 437 32,000  Level Atlanta Center
03:59PM 33.6439 -84.0189 234° Southwest 385 443 32,000  Level Atlanta Center
04:00PM 33.5814 -84.1186 233° Southwest 385 443 32,000  Level Atlanta Center
04:01PM 33.5292 -84.2108 236° Southwest 380 437 32,000 -600 Level Atlanta Center
04:02PM 33.4683 -84.3128 234° Southwest 380 437 30,800 -1,380 Descending Atlanta Center
04:03PM 33.4075 -84.4097 233° Southwest 374 430 29,300 -1,560 Descending Atlanta Center
04:04PM 33.3489 -84.5064 234° Southwest 369 425 27,700 -1,500 Descending Atlanta Center
04:05PM 33.2858 -84.6153 235° Southwest 369 425 26,300 2,100 Descending Atlanta Center
04:06PM 33.2247 -84.7142 234° Southwest 364 419 32,000 -1,200 Climbing Atlanta Center
04:07PM 33.1656 -84.8131 234° Southwest 364 419 24,000 -4,020 Descending Atlanta Center
04:08PM 33.1086 -84.9067 234° Southwest 359 413 24,000  Level Atlanta Center
04:09PM 33.0517 -84.9981 233° Southwest 359 413 24,000  Level Atlanta Center
04:10PM 32.9903 -85.0939 233° Southwest 364 419 24,000  Level Atlanta Center
04:11PM 32.9394 -85.1750 233° Southwest 364 419 24,000 -360 Level Atlanta Center
04:12PM 32.8822 -85.2681 234° Southwest 359 413 23,300 -1,680 Descending Atlanta Center
04:13PM 32.8250 -85.3589 233° Southwest 359 413 20,700 -2,220 Descending Atlanta Center
04:15PM 32.7250 -85.5253 234° Southwest 339 390 16,800 -2,280 Descending Atlanta Center
04:16PM 32.6633 -85.6203 232° Southwest 322 371 13,900 -2,640 Descending Atlanta Center
04:17PM 32.6100 -85.7008 232° Southwest 317 365 11,600 -1,980 Descending Atlanta Center
04:18PM 32.5672 -85.7739 235° Southwest 301 346 10,000 -1,680 Descending Atlanta Center
04:19PM 32.5267 -85.8397 234° Southwest 275 316 8,300 -1,860 Descending Atlanta Center
04:20PM 32.4839 -85.9028 231° Southwest 258 297 6,300 -1,800 Descending Atlanta Center
04:21PM 32.4475 -85.9636 235° Southwest 241 277 4,800 -1,200 Descending Atlanta Center
04:22PM 32.4111 -86.0219 234° Southwest 236 272 4,000 -420 Descending Atlanta Center
04:24PM 32.3361 -86.1406 233° Southwest 231 266 3,700 -180 Descending Atlanta Center